createdAt,value
2023-03-03T00:00:25.869Z,997.21
2023-03-03T00:01:25.859Z,997.19
2023-03-03T00:03:49.410Z,997.20
2023-03-03T00:04:49.341Z,997.41
2023-03-03T00:05:49.315Z,997.36
2023-03-03T00:06:49.308Z,997.37
2023-03-03T00:07:49.303Z,997.34
2023-03-03T00:08:49.379Z,997.36
2023-03-03T00:09:49.278Z,997.32
2023-03-03T00:10:49.275Z,997.38
2023-03-03T00:11:49.249Z,997.38
2023-03-03T00:12:49.235Z,997.33
2023-03-03T00:13:49.252Z,997.47
2023-03-03T00:14:49.243Z,997.30
2023-03-03T00:15:49.266Z,997.46
2023-03-03T00:16:49.212Z,997.33
2023-03-03T00:17:49.193Z,997.34
2023-03-03T00:18:49.195Z,997.40
2023-03-03T00:19:49.174Z,997.37
2023-03-03T00:20:49.151Z,997.35
2023-03-03T00:21:49.142Z,997.34
2023-03-03T00:22:49.129Z,997.36
2023-03-03T00:23:49.154Z,997.37
2023-03-03T00:24:49.105Z,997.43
2023-03-03T00:25:49.108Z,997.45
2023-03-03T00:26:49.109Z,997.34
2023-03-03T00:27:49.080Z,997.37
2023-03-03T00:28:49.073Z,997.34
2023-03-03T00:29:49.075Z,997.38
2023-03-03T00:30:49.110Z,997.44
2023-03-03T00:31:49.057Z,997.45
2023-03-03T00:32:49.028Z,997.55
2023-03-03T00:33:49.046Z,997.44
2023-03-03T00:34:49.020Z,997.36
2023-03-03T00:35:49.093Z,997.38
2023-03-03T00:36:48.992Z,997.30
2023-03-03T00:37:48.989Z,997.29
2023-03-03T00:38:48.998Z,997.31
2023-03-03T00:39:48.956Z,997.38
2023-03-03T00:40:48.956Z,997.31
2023-03-03T00:41:48.959Z,997.33
2023-03-03T00:42:48.926Z,997.35
2023-03-03T00:43:48.944Z,997.35
2023-03-03T00:44:48.909Z,997.31
2023-03-03T00:45:49.001Z,997.33
2023-03-03T00:46:48.886Z,997.34
2023-03-03T00:47:48.886Z,997.41
2023-03-03T00:48:48.889Z,997.34
2023-03-03T00:49:48.867Z,997.44
2023-03-03T00:50:48.858Z,997.39
2023-03-03T00:51:48.840Z,997.46
2023-03-03T00:52:48.827Z,997.41
2023-03-03T00:53:48.837Z,997.46
2023-03-03T00:54:48.813Z,997.46
2023-03-03T00:55:48.799Z,997.50
2023-03-03T00:56:48.787Z,997.53
2023-03-03T00:57:48.777Z,997.48
2023-03-03T00:58:48.763Z,997.50
2023-03-03T00:59:48.768Z,997.50
2023-03-03T01:00:48.753Z,997.54
2023-03-03T01:01:48.778Z,997.49
2023-03-03T01:02:48.792Z,997.43
2023-03-03T01:03:48.714Z,997.46
2023-03-03T01:04:48.711Z,997.49
2023-03-03T01:05:48.695Z,997.41
2023-03-03T01:06:48.679Z,997.50
2023-03-03T01:07:48.672Z,997.42
2023-03-03T01:08:48.664Z,997.45
2023-03-03T01:09:48.659Z,997.47
2023-03-03T01:10:48.634Z,997.51
2023-03-03T01:11:48.628Z,997.48
2023-03-03T01:12:48.612Z,997.52
2023-03-03T01:13:48.610Z,997.55
2023-03-03T01:14:48.626Z,997.53
2023-03-03T01:15:48.668Z,997.51
2023-03-03T01:16:48.576Z,997.57
2023-03-03T01:17:48.568Z,997.48
2023-03-03T01:18:48.568Z,997.53
2023-03-03T01:19:48.592Z,997.59
2023-03-03T01:20:48.531Z,997.52
2023-03-03T01:21:48.553Z,997.50
2023-03-03T01:22:48.518Z,997.59
2023-03-03T01:23:48.514Z,997.59
2023-03-03T01:24:48.515Z,997.54
2023-03-03T01:25:48.479Z,997.54
2023-03-03T01:26:48.471Z,997.58
2023-03-03T01:27:48.459Z,997.62
2023-03-03T01:28:48.446Z,997.51
2023-03-03T01:29:48.452Z,997.53
2023-03-03T01:30:48.447Z,997.49
2023-03-03T01:31:48.418Z,997.53
2023-03-03T01:32:48.404Z,997.49
2023-03-03T01:33:48.398Z,997.46
2023-03-03T01:34:48.395Z,997.44
2023-03-03T01:35:48.450Z,997.47
2023-03-03T01:36:48.375Z,997.44
2023-03-03T01:37:48.369Z,997.39
2023-03-03T01:38:48.342Z,997.53
2023-03-03T01:39:48.359Z,997.48
2023-03-03T01:40:48.326Z,997.51
2023-03-03T01:41:48.317Z,997.49
2023-03-03T01:42:48.301Z,997.47
2023-03-03T01:43:48.300Z,997.42
2023-03-03T01:44:48.314Z,997.53
2023-03-03T01:45:48.281Z,997.50
2023-03-03T01:46:48.513Z,997.41
2023-03-03T01:47:48.255Z,997.53
2023-03-03T01:48:48.242Z,997.50
2023-03-03T01:49:48.243Z,997.53
2023-03-03T01:50:48.231Z,997.50
2023-03-03T01:51:48.220Z,997.49
2023-03-03T01:52:48.230Z,997.50
2023-03-03T01:53:48.192Z,997.53
2023-03-03T01:54:48.191Z,997.50
2023-03-03T01:55:48.172Z,997.51
2023-03-03T01:56:48.157Z,997.51
2023-03-03T01:57:48.155Z,997.53
2023-03-03T01:58:48.134Z,997.58
2023-03-03T01:59:48.163Z,997.49
2023-03-03T02:00:48.114Z,997.52
2023-03-03T02:01:48.194Z,997.44
2023-03-03T02:02:48.183Z,997.45
2023-03-03T02:03:48.083Z,997.48
2023-03-03T02:04:48.088Z,997.48
2023-03-03T02:05:48.095Z,997.46
2023-03-03T02:06:48.065Z,997.54
2023-03-03T02:07:48.044Z,997.53
2023-03-03T02:08:48.049Z,997.53
2023-03-03T02:09:48.046Z,997.57
2023-03-03T02:10:48.005Z,997.54
2023-03-03T02:11:48.003Z,997.57
2023-03-03T02:12:48.007Z,997.53
2023-03-03T02:13:47.998Z,997.56
2023-03-03T02:14:47.986Z,997.73
2023-03-03T02:15:48.006Z,997.61
2023-03-03T02:16:47.955Z,997.63
2023-03-03T02:17:47.958Z,997.65
2023-03-03T02:18:47.928Z,997.59
2023-03-03T02:19:47.935Z,997.65
2023-03-03T02:20:47.938Z,997.67
2023-03-03T02:21:47.918Z,997.59
2023-03-03T02:22:47.898Z,997.51
2023-03-03T02:23:47.882Z,997.67
2023-03-03T02:24:47.887Z,997.57
2023-03-03T02:25:47.858Z,997.62
2023-03-03T02:26:47.860Z,997.65
2023-03-03T02:27:47.850Z,997.69
2023-03-03T02:28:47.828Z,997.69
2023-03-03T02:29:47.835Z,997.69
2023-03-03T02:30:47.824Z,997.66
2023-03-03T02:31:47.825Z,997.61
2023-03-03T02:32:47.794Z,997.56
2023-03-03T02:33:47.791Z,997.65
2023-03-03T02:34:47.772Z,997.65
2023-03-03T02:35:47.801Z,997.60
2023-03-03T02:36:47.748Z,997.61
2023-03-03T02:37:47.737Z,997.52
2023-03-03T02:38:47.722Z,997.44
2023-03-03T02:39:47.731Z,997.51
2023-03-03T02:40:47.715Z,997.53
2023-03-03T02:41:47.733Z,997.50
2023-03-03T02:42:47.680Z,997.49
2023-03-03T02:43:47.670Z,997.50
2023-03-03T02:44:47.668Z,997.50
2023-03-03T02:45:47.709Z,997.45
2023-03-03T02:46:47.645Z,997.53
2023-03-03T02:47:47.629Z,997.43
2023-03-03T02:48:47.619Z,997.47
2023-03-03T02:49:47.610Z,997.50
2023-03-03T02:50:47.603Z,997.56
2023-03-03T02:51:47.585Z,997.49
2023-03-03T02:52:47.580Z,997.50
2023-03-03T02:53:47.566Z,997.57
2023-03-03T02:54:47.567Z,997.54
2023-03-03T02:55:47.552Z,997.54
2023-03-03T02:56:47.536Z,997.46
2023-03-03T02:57:47.523Z,997.54
2023-03-03T02:58:47.510Z,997.53
2023-03-03T02:59:47.506Z,997.51
2023-03-03T03:00:47.536Z,997.60
2023-03-03T03:01:47.484Z,997.61
2023-03-03T03:02:47.468Z,997.57
2023-03-03T03:03:47.448Z,997.59
2023-03-03T03:04:47.444Z,997.57
2023-03-03T03:05:47.444Z,997.55
2023-03-03T03:06:47.435Z,997.53
2023-03-03T03:07:47.409Z,997.73
2023-03-03T03:08:47.401Z,997.66
2023-03-03T03:09:47.475Z,997.62
2023-03-03T03:10:47.401Z,997.60
2023-03-03T03:11:47.362Z,997.59
2023-03-03T03:12:47.352Z,997.62
2023-03-03T03:13:47.344Z,997.62
2023-03-03T03:14:47.325Z,997.66
2023-03-03T03:15:47.318Z,997.59
2023-03-03T03:16:47.350Z,997.58
2023-03-03T03:17:47.307Z,997.57
2023-03-03T03:18:47.297Z,997.52
2023-03-03T03:19:47.285Z,997.46
2023-03-03T03:20:48.555Z,997.49
2023-03-03T03:21:47.271Z,997.49
2023-03-03T03:22:47.249Z,997.52
2023-03-03T03:23:47.236Z,997.60
2023-03-03T03:24:47.232Z,997.49
2023-03-03T03:25:47.216Z,997.50
2023-03-03T03:26:47.215Z,997.52
2023-03-03T03:27:47.187Z,997.50
2023-03-03T03:28:47.290Z,997.57
2023-03-03T03:29:47.167Z,997.54
2023-03-03T03:30:47.192Z,997.58
2023-03-03T03:31:47.160Z,997.64
2023-03-03T03:32:47.136Z,997.61
2023-03-03T03:33:47.128Z,997.70
2023-03-03T03:34:47.129Z,997.63
2023-03-03T03:35:47.181Z,997.54
2023-03-03T03:36:47.106Z,997.65
2023-03-03T03:37:47.089Z,997.60
2023-03-03T03:38:47.074Z,997.56
2023-03-03T03:39:47.058Z,997.56
2023-03-03T03:40:47.046Z,997.57
2023-03-03T03:41:47.071Z,997.64
2023-03-03T03:42:47.029Z,997.78
2023-03-03T03:43:47.015Z,997.77
2023-03-03T03:44:47.044Z,997.64
2023-03-03T03:45:47.013Z,997.65
2023-03-03T03:46:47.009Z,997.63
2023-03-03T03:47:47.008Z,997.70
2023-03-03T03:48:46.962Z,997.65
2023-03-03T03:49:46.958Z,997.64
2023-03-03T03:50:46.941Z,997.66
2023-03-03T03:51:46.938Z,997.63
2023-03-03T03:52:46.934Z,997.67
2023-03-03T03:53:46.911Z,997.71
2023-03-03T03:54:46.906Z,997.64
2023-03-03T03:55:46.888Z,997.65
2023-03-03T03:56:46.901Z,997.72
2023-03-03T03:57:46.870Z,997.76
2023-03-03T03:58:46.864Z,997.73
2023-03-03T03:59:46.852Z,997.84
2023-03-03T04:00:46.852Z,997.74
2023-03-03T04:01:46.844Z,997.92
2023-03-03T04:02:46.901Z,997.76
2023-03-03T04:03:46.816Z,997.82
2023-03-03T04:04:46.811Z,997.78
2023-03-03T04:05:46.793Z,997.71
2023-03-03T04:06:46.808Z,997.71
2023-03-03T04:07:46.764Z,997.74
2023-03-03T04:08:46.762Z,997.76
2023-03-03T04:09:46.750Z,997.71
2023-03-03T04:10:46.742Z,997.73
2023-03-03T04:11:46.738Z,997.70
2023-03-03T04:12:46.719Z,997.71
2023-03-03T04:13:46.706Z,997.74
2023-03-03T04:14:46.701Z,997.76
2023-03-03T04:15:46.740Z,997.82
2023-03-03T04:16:46.688Z,997.74
2023-03-03T04:17:46.669Z,997.77
2023-03-03T04:18:46.862Z,997.77
2023-03-03T04:19:46.660Z,997.88
2023-03-03T04:20:46.634Z,997.92
2023-03-03T04:21:46.633Z,997.88
2023-03-03T04:22:46.624Z,997.79
2023-03-03T04:23:46.630Z,997.82
2023-03-03T04:24:46.589Z,997.79
2023-03-03T04:25:46.594Z,997.82
2023-03-03T04:26:46.594Z,997.81
2023-03-03T04:27:46.563Z,997.90
2023-03-03T04:28:46.563Z,997.84
2023-03-03T04:29:46.557Z,997.81
2023-03-03T04:30:46.612Z,997.85
2023-03-03T04:31:46.538Z,997.85
2023-03-03T04:32:46.532Z,997.92
2023-03-03T04:33:46.501Z,997.90
2023-03-03T04:34:52.962Z,997.93
2023-03-03T04:35:47.554Z,997.94
2023-03-03T04:36:46.490Z,997.94
2023-03-03T04:37:46.460Z,997.97
2023-03-03T04:38:46.452Z,998.01
2023-03-03T04:39:46.442Z,998.05
2023-03-03T04:40:46.429Z,997.92
2023-03-03T04:41:46.430Z,997.87
2023-03-03T04:42:46.404Z,997.86
2023-03-03T04:43:46.404Z,997.87
2023-03-03T04:44:46.387Z,997.74
2023-03-03T04:45:46.372Z,997.91
2023-03-03T04:46:46.380Z,997.93
2023-03-03T04:47:46.353Z,997.86
2023-03-03T04:48:46.350Z,997.95
2023-03-03T04:49:46.348Z,997.91
2023-03-03T04:50:46.329Z,997.93
2023-03-03T04:51:46.327Z,998.04
2023-03-03T04:52:46.304Z,998.08
2023-03-03T04:53:46.290Z,998.07
2023-03-03T04:54:46.275Z,998.01
2023-03-03T04:55:46.280Z,998.03
2023-03-03T04:56:46.279Z,998.04
2023-03-03T04:57:46.282Z,998.05
2023-03-03T04:58:46.249Z,998.09
2023-03-03T04:59:46.234Z,998.03
2023-03-03T05:00:46.217Z,998.04
2023-03-03T05:01:46.315Z,998.07
2023-03-03T05:02:46.197Z,998.07
2023-03-03T05:03:46.187Z,998.08
2023-03-03T05:04:46.245Z,998.04
2023-03-03T05:05:46.165Z,998.15
2023-03-03T05:06:46.181Z,998.14
2023-03-03T05:07:46.140Z,998.17
2023-03-03T05:08:46.126Z,998.17
2023-03-03T05:09:46.139Z,998.22
2023-03-03T05:10:46.139Z,998.27
2023-03-03T05:11:46.119Z,998.19
2023-03-03T05:12:46.086Z,998.26
2023-03-03T05:13:46.079Z,998.25
2023-03-03T05:14:46.067Z,998.13
2023-03-03T05:15:46.125Z,998.22
2023-03-03T05:16:46.093Z,998.20
2023-03-03T05:17:46.060Z,998.30
2023-03-03T05:18:46.942Z,998.27
2023-03-03T05:19:46.012Z,998.31
2023-03-03T05:20:46.010Z,998.26
2023-03-03T05:21:46.070Z,998.26
2023-03-03T05:22:45.993Z,998.30
2023-03-03T05:23:45.974Z,998.19
2023-03-03T05:24:45.961Z,998.16
2023-03-03T05:25:45.949Z,998.31
2023-03-03T05:26:45.977Z,998.20
2023-03-03T05:27:45.930Z,998.22
2023-03-03T05:28:45.923Z,998.28
2023-03-03T05:29:45.904Z,998.10
2023-03-03T05:30:45.896Z,998.17
2023-03-03T05:31:45.984Z,998.13
2023-03-03T05:32:45.873Z,998.23
2023-03-03T05:33:45.864Z,998.14
2023-03-03T05:34:45.850Z,998.07
2023-03-03T05:35:45.905Z,998.18
2023-03-03T05:36:45.850Z,998.07
2023-03-03T05:37:45.823Z,998.10
2023-03-03T05:38:45.820Z,998.12
2023-03-03T05:39:45.817Z,998.01
2023-03-03T05:40:45.794Z,998.05
2023-03-03T05:41:45.788Z,998.03
2023-03-03T05:42:45.869Z,998.20
2023-03-03T05:43:45.783Z,998.16
2023-03-03T05:44:45.746Z,998.11
2023-03-03T05:45:45.741Z,998.17
2023-03-03T05:46:45.798Z,998.20
2023-03-03T05:47:45.735Z,998.29
2023-03-03T05:48:45.710Z,998.14
2023-03-03T05:49:45.703Z,998.24
2023-03-03T05:50:45.690Z,998.18
2023-03-03T05:51:45.689Z,998.26
2023-03-03T05:52:45.686Z,998.32
2023-03-03T05:53:45.661Z,998.32
2023-03-03T05:54:45.646Z,998.25
2023-03-03T05:55:45.647Z,998.28
2023-03-03T05:56:45.632Z,998.31
2023-03-03T05:57:45.641Z,998.24
2023-03-03T05:58:45.617Z,998.35
2023-03-03T05:59:45.604Z,998.28
2023-03-03T06:00:45.682Z,998.27
2023-03-03T06:01:52.546Z,998.34
2023-03-03T06:02:45.621Z,998.30
2023-03-03T06:03:45.557Z,998.35
2023-03-03T06:04:45.545Z,998.38
2023-03-03T06:05:45.581Z,998.38
2023-03-03T06:06:45.576Z,998.33
2023-03-03T06:07:50.532Z,998.47
2023-03-03T06:08:45.543Z,998.43
2023-03-03T06:09:45.504Z,998.47
2023-03-03T06:10:45.495Z,998.42
2023-03-03T06:11:45.478Z,998.51
2023-03-03T06:12:45.541Z,998.50
2023-03-03T06:13:45.471Z,998.51
2023-03-03T06:14:45.459Z,998.58
2023-03-03T06:15:45.478Z,998.50
2023-03-03T06:16:45.465Z,998.47
2023-03-03T06:17:45.435Z,998.53
2023-03-03T06:18:45.403Z,998.47
2023-03-03T06:19:48.018Z,998.62
2023-03-03T06:20:45.379Z,998.56
2023-03-03T06:21:45.386Z,998.54
2023-03-03T06:22:45.374Z,998.59
2023-03-03T06:23:45.360Z,998.53
2023-03-03T06:24:45.339Z,998.46
2023-03-03T06:25:45.331Z,998.56
2023-03-03T06:26:45.330Z,998.54
2023-03-03T06:27:45.330Z,998.56
2023-03-03T06:28:45.365Z,998.62
2023-03-03T06:29:45.295Z,998.59
2023-03-03T06:30:45.276Z,998.61
2023-03-03T06:31:45.294Z,998.68
2023-03-03T06:32:45.346Z,998.77
2023-03-03T06:33:45.257Z,998.72
2023-03-03T06:34:45.356Z,998.70
2023-03-03T06:35:45.257Z,998.68
2023-03-03T06:36:45.223Z,998.62
2023-03-03T06:37:45.217Z,998.61
2023-03-03T06:38:45.199Z,998.71
2023-03-03T06:39:45.191Z,998.69
2023-03-03T06:40:45.174Z,998.68
2023-03-03T06:41:45.165Z,998.71
2023-03-03T06:42:45.190Z,998.69
2023-03-03T06:43:45.171Z,998.81
2023-03-03T06:44:45.151Z,998.78
2023-03-03T06:45:45.131Z,998.75
2023-03-03T06:46:45.112Z,998.80
2023-03-03T06:47:45.115Z,998.68
2023-03-03T06:48:45.090Z,998.73
2023-03-03T06:49:45.108Z,998.79
2023-03-03T06:50:45.069Z,998.82
2023-03-03T06:51:45.057Z,998.86
2023-03-03T06:52:45.066Z,998.84
2023-03-03T06:53:45.041Z,998.78
2023-03-03T06:54:45.021Z,998.80
2023-03-03T06:55:45.168Z,998.81
2023-03-03T06:56:45.025Z,998.77
2023-03-03T06:57:45.009Z,998.82
2023-03-03T06:58:44.986Z,998.78
2023-03-03T06:59:44.973Z,998.74
2023-03-03T07:00:44.994Z,998.81
2023-03-03T07:01:44.957Z,998.91
2023-03-03T07:02:44.954Z,998.86
2023-03-03T07:03:44.940Z,998.89
2023-03-03T07:04:44.923Z,998.91
2023-03-03T07:05:44.918Z,998.89
2023-03-03T07:06:44.912Z,998.93
2023-03-03T07:07:44.947Z,998.89
2023-03-03T07:08:44.884Z,998.94
2023-03-03T07:09:44.870Z,998.94
2023-03-03T07:10:44.867Z,998.90
2023-03-03T07:11:46.576Z,998.85
2023-03-03T07:12:44.851Z,998.92
2023-03-03T07:13:44.863Z,998.94
2023-03-03T07:14:45.543Z,998.93
2023-03-03T07:15:44.821Z,998.96
2023-03-03T07:16:44.818Z,998.87
2023-03-03T07:17:44.806Z,998.92
2023-03-03T07:18:44.807Z,998.95
2023-03-03T07:19:44.771Z,998.91
2023-03-03T07:20:44.770Z,998.96
2023-03-03T07:22:05.799Z,998.98
2023-03-03T07:22:44.758Z,999.11
2023-03-03T07:23:44.746Z,998.99
2023-03-03T07:24:44.744Z,999.13
2023-03-03T07:25:44.726Z,999.05
2023-03-03T07:26:44.710Z,999.08
2023-03-03T07:27:44.712Z,999.01
2023-03-03T07:28:44.714Z,999.00
2023-03-03T07:29:44.683Z,998.98
2023-03-03T07:30:44.687Z,998.97
2023-03-03T07:31:45.695Z,998.99
2023-03-03T07:32:44.666Z,998.90
2023-03-03T07:33:44.636Z,998.86
2023-03-03T07:34:44.628Z,998.95
2023-03-03T07:35:44.665Z,998.93
2023-03-03T07:36:44.624Z,998.93
2023-03-03T07:37:44.609Z,998.90
2023-03-03T07:38:44.588Z,998.88
2023-03-03T07:39:44.574Z,998.98
2023-03-03T07:40:51.553Z,998.96
2023-03-03T07:41:44.560Z,999.00
2023-03-03T07:42:44.567Z,998.99
2023-03-03T07:43:44.566Z,998.94
2023-03-03T07:44:44.560Z,999.06
2023-03-03T07:45:44.541Z,998.97
2023-03-03T07:46:44.507Z,998.94
2023-03-03T07:47:44.519Z,998.95
2023-03-03T07:48:44.491Z,998.97
2023-03-03T07:49:44.468Z,999.00
2023-03-03T07:50:44.475Z,999.09
2023-03-03T07:51:44.456Z,999.16
2023-03-03T07:52:44.448Z,999.10
2023-03-03T07:53:44.454Z,999.10
2023-03-03T07:54:44.420Z,999.11
2023-03-03T07:55:44.416Z,999.12
2023-03-03T07:56:44.395Z,999.10
2023-03-03T07:57:44.386Z,999.10
2023-03-03T07:58:44.405Z,999.14
2023-03-03T07:59:44.360Z,999.18
2023-03-03T08:00:44.380Z,999.21
2023-03-03T08:01:44.452Z,999.24
2023-03-03T08:02:44.335Z,999.26
2023-03-03T08:03:44.336Z,999.22
2023-03-03T08:04:44.412Z,999.25
2023-03-03T08:05:44.297Z,999.29
2023-03-03T08:06:44.292Z,999.35
2023-03-03T08:07:44.278Z,999.27
2023-03-03T08:08:44.439Z,999.38
2023-03-03T08:09:44.260Z,999.33
2023-03-03T08:10:44.301Z,999.33
2023-03-03T08:11:44.260Z,999.26
2023-03-03T08:12:44.226Z,999.31
2023-03-03T08:13:44.218Z,999.34
2023-03-03T08:14:44.208Z,999.35
2023-03-03T08:15:44.296Z,999.32
2023-03-03T08:16:44.176Z,999.29
2023-03-03T08:17:44.163Z,999.37
2023-03-03T08:18:44.167Z,999.33
2023-03-03T08:19:44.135Z,999.32
2023-03-03T08:20:44.128Z,999.29
2023-03-03T08:21:44.118Z,999.26
2023-03-03T08:22:44.106Z,999.32
2023-03-03T08:23:44.097Z,999.37
2023-03-03T08:24:44.081Z,999.32
2023-03-03T08:25:44.156Z,999.30
2023-03-03T08:26:44.072Z,999.37
2023-03-03T08:27:44.072Z,999.42
2023-03-03T08:28:44.077Z,999.41
2023-03-03T08:29:44.026Z,999.41
2023-03-03T08:30:44.111Z,999.34
2023-03-03T08:31:44.066Z,999.39
2023-03-03T08:32:44.077Z,999.39
2023-03-03T08:33:44.016Z,999.47
2023-03-03T08:34:43.969Z,999.40
2023-03-03T08:35:43.999Z,999.41
2023-03-03T08:36:43.982Z,999.36
2023-03-03T08:37:43.952Z,999.29
2023-03-03T08:38:43.968Z,999.36
2023-03-03T08:39:43.915Z,999.35
2023-03-03T08:40:44.260Z,999.39
2023-03-03T08:41:43.953Z,999.41
2023-03-03T08:42:43.883Z,999.40
2023-03-03T08:43:43.893Z,999.48
2023-03-03T08:44:43.862Z,999.43
2023-03-03T08:45:43.883Z,999.42
2023-03-03T08:46:44.015Z,999.49
2023-03-03T08:47:43.833Z,999.50
2023-03-03T08:48:43.832Z,999.36
2023-03-03T08:49:43.831Z,999.38
2023-03-03T08:50:43.805Z,999.44
2023-03-03T08:51:43.786Z,999.44
2023-03-03T08:52:43.805Z,999.50
2023-03-03T08:53:43.797Z,999.54
2023-03-03T08:54:43.763Z,999.63
2023-03-03T08:55:43.749Z,999.55
2023-03-03T08:56:43.727Z,999.51
2023-03-03T08:57:43.724Z,999.57
2023-03-03T08:58:59.624Z,999.52
2023-03-03T08:59:44.705Z,999.56
2023-03-03T09:00:43.698Z,999.58
2023-03-03T09:01:43.713Z,999.59
2023-03-03T09:02:43.714Z,999.63
2023-03-03T09:03:43.662Z,999.73
2023-03-03T09:04:43.730Z,999.71
2023-03-03T09:05:43.750Z,999.69
2023-03-03T09:06:43.655Z,999.70
2023-03-03T09:07:43.627Z,999.81
2023-03-03T09:08:43.600Z,999.82
2023-03-03T09:09:43.620Z,999.80
2023-03-03T09:10:43.582Z,999.81
2023-03-03T09:11:43.615Z,999.97
2023-03-03T09:12:43.564Z,999.81
2023-03-03T09:13:43.563Z,999.81
2023-03-03T09:14:43.554Z,999.86
2023-03-03T09:15:43.630Z,999.90
2023-03-03T09:16:43.530Z,999.87
2023-03-03T09:17:43.524Z,999.88
2023-03-03T09:18:43.521Z,999.90
2023-03-03T09:19:43.517Z,999.87
2023-03-03T09:20:43.480Z,999.87
2023-03-03T09:21:44.173Z,999.87
2023-03-03T09:22:58.600Z,999.87
2023-03-03T09:23:43.451Z,999.94
2023-03-03T09:24:43.473Z,999.99
2023-03-03T09:25:43.487Z,999.86
2023-03-03T09:28:16.320Z,999.85
2023-03-03T09:29:16.423Z,999.84
2023-03-03T09:30:16.324Z,999.82
2023-03-03T09:31:16.336Z,999.80
2023-03-03T09:32:16.332Z,999.80
2023-03-03T09:33:27.510Z,999.81
2023-03-03T09:34:17.291Z,999.84
2023-03-03T09:35:16.276Z,999.95
2023-03-03T09:36:16.253Z,999.84
2023-03-03T09:37:16.935Z,999.92
2023-03-03T09:38:16.392Z,999.81
2023-03-03T09:39:16.298Z,999.93
2023-03-03T09:40:16.237Z,999.81
2023-03-03T09:41:16.225Z,999.93
2023-03-03T09:42:16.196Z,999.84
2023-03-03T09:43:18.300Z,999.83
2023-03-03T09:44:16.202Z,999.94
2023-03-03T09:45:16.170Z,999.85
2023-03-03T09:46:16.221Z,999.86
2023-03-03T09:47:16.177Z,999.91
2023-03-03T09:48:16.158Z,999.88
2023-03-03T09:49:16.150Z,999.91
2023-03-03T09:50:16.107Z,999.95
2023-03-03T09:51:16.123Z,999.99
2023-03-03T09:52:16.941Z,999.96
2023-03-03T09:53:16.128Z,999.93
2023-03-03T09:54:16.085Z,1000.00
2023-03-03T09:55:16.111Z,999.86
2023-03-03T09:56:16.051Z,1000.06
2023-03-03T09:57:16.038Z,999.99
2023-03-03T09:58:16.033Z,999.93
2023-03-03T09:59:16.050Z,999.94
2023-03-03T10:00:16.030Z,999.94
2023-03-03T10:01:15.998Z,1000.00
2023-03-03T10:02:16.015Z,999.95
2023-03-03T10:03:16.018Z,999.93
2023-03-03T10:04:15.990Z,999.98
2023-03-03T10:05:16.000Z,1000.00
2023-03-03T10:06:16.005Z,999.99
2023-03-03T10:07:16.022Z,999.96
2023-03-03T10:08:15.988Z,999.95
2023-03-03T10:09:15.946Z,1000.05
2023-03-03T10:10:15.970Z,999.98
2023-03-03T10:11:15.999Z,999.96
2023-03-03T10:12:17.800Z,999.96
2023-03-03T10:13:15.876Z,1000.02
2023-03-03T10:14:15.956Z,999.98
2023-03-03T10:15:15.889Z,999.95
2023-03-03T10:16:15.870Z,1000.00
2023-03-03T10:17:15.911Z,999.95
2023-03-03T10:18:15.914Z,999.91
2023-03-03T10:19:15.944Z,1000.01
2023-03-03T10:20:15.869Z,999.94
2023-03-03T10:21:15.787Z,999.92
2023-03-03T10:22:15.820Z,999.87
2023-03-03T10:23:15.763Z,999.86
2023-03-03T10:24:15.777Z,999.86
2023-03-03T10:25:15.819Z,999.93
2023-03-03T10:26:15.732Z,999.92
2023-03-03T10:27:15.733Z,999.92
2023-03-03T10:28:15.702Z,1000.00
2023-03-03T10:29:22.125Z,999.94
2023-03-03T10:30:17.565Z,999.86
2023-03-03T10:31:18.194Z,999.93
2023-03-03T10:32:16.532Z,999.86
2023-03-03T10:33:15.899Z,999.99
2023-03-03T10:34:15.707Z,999.91
2023-03-03T10:35:15.961Z,999.95
2023-03-03T10:36:15.712Z,999.94
2023-03-03T10:37:15.608Z,999.94
2023-03-03T10:38:15.606Z,999.95
2023-03-03T10:39:15.629Z,1000.03
2023-03-03T10:40:15.683Z,1000.04
2023-03-03T10:41:15.588Z,999.92
2023-03-03T10:42:15.651Z,999.93
2023-03-03T10:43:29.698Z,999.95
2023-03-03T10:44:16.528Z,999.94
2023-03-03T10:45:15.533Z,999.94
2023-03-03T10:46:15.647Z,999.99
2023-03-03T10:47:15.521Z,999.97
2023-03-03T10:48:15.484Z,1000.08
2023-03-03T10:49:15.485Z,1000.01
2023-03-03T10:50:15.486Z,999.94
2023-03-03T10:51:15.461Z,1000.01
2023-03-03T10:52:15.461Z,999.99
2023-03-03T10:53:15.468Z,999.94
2023-03-03T10:54:15.423Z,1000.00
2023-03-03T10:55:15.452Z,1000.06
2023-03-03T10:56:15.428Z,999.93
2023-03-03T10:57:15.419Z,999.91
2023-03-03T10:58:15.409Z,999.94
2023-03-03T10:59:15.384Z,1000.14
2023-03-03T11:00:15.437Z,1000.05
2023-03-03T11:01:15.404Z,1000.08
2023-03-03T11:02:15.342Z,1000.03
2023-03-03T11:03:15.330Z,999.97
2023-03-03T11:04:15.373Z,1000.00
2023-03-03T11:05:15.328Z,999.96
2023-03-03T11:06:15.304Z,999.95
2023-03-03T11:07:15.287Z,1000.05
2023-03-03T11:08:15.338Z,999.87
2023-03-03T11:09:15.276Z,999.87
2023-03-03T11:10:15.316Z,999.85
2023-03-03T11:11:15.241Z,999.83
2023-03-03T11:12:15.244Z,999.87
2023-03-03T11:13:15.245Z,999.92
2023-03-03T11:14:15.206Z,999.93
2023-03-03T11:15:15.223Z,999.94
2023-03-03T11:16:15.254Z,999.95
2023-03-03T11:17:15.183Z,999.88
2023-03-03T11:18:15.177Z,999.91
2023-03-03T11:19:15.158Z,999.99
2023-03-03T11:20:15.148Z,999.89
2023-03-03T11:21:15.181Z,999.94
2023-03-03T11:22:15.125Z,999.95
2023-03-03T11:23:15.121Z,999.87
2023-03-03T11:24:15.109Z,999.87
2023-03-03T11:25:15.106Z,999.90
2023-03-03T11:26:15.127Z,999.83
2023-03-03T11:27:15.079Z,999.82
2023-03-03T11:28:15.064Z,999.76
2023-03-03T11:29:15.081Z,999.77
2023-03-03T11:30:15.056Z,999.90
2023-03-03T11:31:15.117Z,999.87
2023-03-03T11:32:15.103Z,999.84
2023-03-03T11:33:15.075Z,999.92
2023-03-03T11:34:15.004Z,999.81
2023-03-03T11:35:14.999Z,999.91
2023-03-03T11:36:14.990Z,999.82
2023-03-03T11:37:14.976Z,999.81
2023-03-03T11:38:14.990Z,999.80
2023-03-03T11:39:15.036Z,999.87
2023-03-03T11:40:15.373Z,999.81
2023-03-03T11:41:14.948Z,999.80
2023-03-03T11:42:14.948Z,999.82
2023-03-03T11:43:26.283Z,999.84
2023-03-03T11:44:15.920Z,999.85
2023-03-03T11:45:14.893Z,999.81
2023-03-03T11:46:14.947Z,999.80
2023-03-03T11:47:14.869Z,999.76
2023-03-03T11:48:14.866Z,999.77
2023-03-03T11:49:14.844Z,999.72
2023-03-03T11:50:14.832Z,999.75
2023-03-03T11:51:14.838Z,999.73
2023-03-03T11:52:14.825Z,999.79
2023-03-03T11:53:14.811Z,999.70
2023-03-03T11:54:14.805Z,999.74
2023-03-03T11:55:14.776Z,999.65
2023-03-03T11:56:14.781Z,999.64
2023-03-03T11:57:14.761Z,999.64
2023-03-03T11:58:14.760Z,999.68
2023-03-03T11:59:14.738Z,999.66
2023-03-03T12:00:14.722Z,999.63
2023-03-03T12:01:14.733Z,999.63
2023-03-03T12:02:14.777Z,999.53
2023-03-03T12:03:14.683Z,999.61
2023-03-03T12:04:14.674Z,999.60
2023-03-03T12:05:14.706Z,999.60
2023-03-03T12:06:14.775Z,999.56
2023-03-03T12:07:18.926Z,999.61
2023-03-03T12:08:14.681Z,999.53
2023-03-03T12:09:14.785Z,999.53
2023-03-03T12:10:14.613Z,999.60
2023-03-03T12:11:14.648Z,999.61
2023-03-03T12:12:14.592Z,999.58
2023-03-03T12:13:14.673Z,999.53
2023-03-03T12:14:14.591Z,999.55
2023-03-03T12:15:14.558Z,999.53
2023-03-03T12:16:14.591Z,999.53
2023-03-03T12:17:14.538Z,999.52
2023-03-03T12:18:14.570Z,999.61
2023-03-03T12:19:14.549Z,999.46
2023-03-03T12:20:14.517Z,999.46
2023-03-03T12:21:14.526Z,999.42
2023-03-03T12:22:14.511Z,999.49
2023-03-03T12:23:14.516Z,999.44
2023-03-03T12:24:14.492Z,999.35
2023-03-03T12:25:14.528Z,999.39
2023-03-03T12:26:14.499Z,999.31
2023-03-03T12:27:14.520Z,999.38
2023-03-03T12:28:14.474Z,999.31
2023-03-03T12:29:14.437Z,999.34
2023-03-03T12:30:14.424Z,999.30